createdAt,value
2018-09-26T00:04:58.525Z,5.90
2018-09-26T00:10:00.687Z,5.90
2018-09-26T00:15:02.859Z,5.60
2018-09-26T00:20:05.685Z,5.80
2018-09-26T00:25:07.845Z,5.80
2018-09-26T00:30:10.014Z,5.80
2018-09-26T00:35:12.189Z,5.80
2018-09-26T00:40:14.333Z,5.80
2018-09-26T00:45:16.482Z,5.60
2018-09-26T00:50:18.610Z,5.60
2018-09-26T00:55:20.742Z,5.60
2018-09-26T01:00:22.878Z,5.40
2018-09-26T01:05:25.043Z,5.10
2018-09-26T01:10:27.194Z,5.30
2018-09-26T01:15:29.330Z,5.20
2018-09-26T01:20:31.461Z,5.30
2018-09-26T01:25:33.593Z,5.40
2018-09-26T01:30:35.761Z,5.30
2018-09-26T01:35:37.892Z,5.20
2018-09-26T01:40:40.046Z,5.20
2018-09-26T01:45:42.182Z,5.10
2018-09-26T01:50:44.342Z,5.00
2018-09-26T01:55:46.485Z,4.90
2018-09-26T02:00:48.625Z,4.70
2018-09-26T02:05:50.794Z,4.70
2018-09-26T02:10:52.962Z,4.80
2018-09-26T02:15:55.132Z,4.70
2018-09-26T02:20:57.254Z,4.70
2018-09-26T02:25:59.392Z,4.50
2018-09-26T02:31:01.530Z,4.50
2018-09-26T02:36:03.693Z,4.50
2018-09-26T02:41:05.898Z,4.40
2018-09-26T02:46:08.069Z,4.50
2018-09-26T02:51:10.286Z,4.40
2018-09-26T02:56:12.425Z,4.40
2018-09-26T03:01:14.561Z,4.30
2018-09-26T03:06:16.949Z,4.30
2018-09-26T03:11:19.090Z,4.30
2018-09-26T03:16:21.219Z,4.30
2018-09-26T03:21:23.374Z,4.20
2018-09-26T03:26:25.693Z,3.90
2018-09-26T03:31:27.843Z,3.90
2018-09-26T03:36:30.263Z,4.00
2018-09-26T03:41:32.406Z,4.00
2018-09-26T03:46:34.539Z,3.70
2018-09-26T03:51:36.680Z,3.90
2018-09-26T03:56:38.905Z,3.90
2018-09-26T04:01:41.038Z,3.90
2018-09-26T04:06:43.186Z,3.80
2018-09-26T04:11:45.317Z,4.00
2018-09-26T04:16:47.484Z,3.90
2018-09-26T04:21:49.610Z,3.90
2018-09-26T04:26:51.827Z,3.90
2018-09-26T04:31:53.922Z,4.00
2018-09-26T04:36:56.066Z,3.90
2018-09-26T04:41:58.208Z,3.80
2018-09-26T04:47:00.346Z,3.80
2018-09-26T04:52:02.502Z,3.60
2018-09-26T04:57:04.786Z,3.60
2018-09-26T05:02:06.914Z,3.60
2018-09-26T05:07:09.038Z,3.70
2018-09-26T05:12:11.170Z,3.80
2018-09-26T05:17:13.298Z,3.70
2018-09-26T05:22:15.441Z,3.80
2018-09-26T05:27:17.570Z,3.80
2018-09-26T05:32:19.706Z,3.70
2018-09-26T05:37:21.853Z,3.70
2018-09-26T05:42:24.018Z,3.80
2018-09-26T05:47:26.170Z,3.80
2018-09-26T05:52:28.281Z,4.00
2018-09-26T05:57:30.413Z,4.10
2018-09-26T06:02:32.542Z,4.20
2018-09-26T06:07:34.695Z,4.30
2018-09-26T06:12:36.841Z,4.60
2018-09-26T06:17:38.991Z,4.90
2018-09-26T06:22:41.757Z,5.10
2018-09-26T06:27:43.890Z,5.30
2018-09-26T06:32:46.031Z,5.80
2018-09-26T06:37:48.526Z,6.20
2018-09-26T06:42:50.657Z,6.40
2018-09-26T06:47:52.803Z,7.10
2018-09-26T06:52:54.930Z,7.70
2018-09-26T06:57:57.070Z,7.80
2018-09-26T07:02:59.214Z,7.90
2018-09-26T07:08:01.342Z,8.20
2018-09-26T07:13:03.530Z,8.50
2018-09-26T07:18:05.971Z,8.90
2018-09-26T07:23:08.153Z,9.40
2018-09-26T07:28:10.278Z,10.30
2018-09-26T07:33:12.425Z,10.80
2018-09-26T07:38:14.754Z,11.00
2018-09-26T07:43:17.042Z,11.30
2018-09-26T07:48:19.178Z,11.90
2018-09-26T07:53:21.998Z,12.70
2018-09-26T07:58:24.149Z,13.50
2018-09-26T08:03:26.305Z,14.20
2018-09-26T08:08:28.474Z,15.30
2018-09-26T08:13:30.765Z,15.70
2018-09-26T08:18:32.951Z,15.80
2018-09-26T08:23:35.062Z,16.50
2018-09-26T08:28:37.239Z,16.70
2018-09-26T08:33:39.365Z,16.90
2018-09-26T08:38:41.493Z,17.40
2018-09-26T08:43:43.693Z,16.90
2018-09-26T08:48:45.835Z,17.40
2018-09-26T08:53:48.060Z,17.30
2018-09-26T08:58:50.144Z,16.80
2018-09-26T09:03:55.334Z,18.10
2018-09-26T09:08:57.485Z,17.80
2018-09-26T09:13:59.617Z,19.10
2018-09-26T09:19:01.789Z,19.20
2018-09-26T09:24:03.922Z,20.20
2018-09-26T09:29:06.082Z,20.60
2018-09-26T09:34:08.218Z,19.80
2018-09-26T09:39:10.400Z,20.50
2018-09-26T09:44:12.582Z,21.40
2018-09-26T09:49:14.717Z,20.70
2018-09-26T09:54:16.847Z,21.00
2018-09-26T09:59:18.982Z,21.40
2018-09-26T10:04:21.110Z,21.90
2018-09-26T10:09:23.254Z,20.70
2018-09-26T10:14:25.466Z,19.60
2018-09-26T10:19:27.535Z,18.80
2018-09-26T10:24:29.665Z,18.90
2018-09-26T10:29:31.808Z,19.30
2018-09-26T10:34:33.962Z,18.30
2018-09-26T10:39:36.101Z,18.20
2018-09-26T10:44:38.259Z,17.90
2018-09-26T10:49:40.394Z,17.90
2018-09-26T10:54:43.786Z,18.00
2018-09-26T10:59:45.933Z,18.20
2018-09-26T11:04:48.082Z,18.00
2018-09-26T11:09:50.651Z,17.90
2018-09-26T11:14:52.780Z,17.90
2018-09-26T11:19:54.947Z,17.60
2018-09-26T11:24:57.079Z,18.00
2018-09-26T11:29:59.229Z,18.00
2018-09-26T11:35:01.383Z,17.80
2018-09-26T11:40:03.734Z,17.80
2018-09-26T11:45:06.050Z,17.80
2018-09-26T11:50:08.257Z,18.20
2018-09-26T11:55:10.377Z,18.00
2018-09-26T12:00:12.517Z,17.90
2018-09-26T12:05:14.674Z,17.70
2018-09-26T12:10:16.894Z,18.10
2018-09-26T12:15:18.978Z,17.90
2018-09-26T12:20:21.118Z,18.10
2018-09-26T12:25:23.466Z,18.00
2018-09-26T12:30:25.580Z,18.00
2018-09-26T12:35:27.644Z,18.10
2018-09-26T12:40:29.790Z,18.10
2018-09-26T12:45:31.945Z,18.10
2018-09-26T12:50:34.098Z,18.10
2018-09-26T12:55:36.270Z,18.20
2018-09-26T13:00:38.450Z,18.30
2018-09-26T13:05:40.529Z,18.30
2018-09-26T13:10:42.739Z,18.60
2018-09-26T13:15:44.905Z,18.50
2018-09-26T13:20:47.038Z,18.50
2018-09-26T13:25:49.179Z,18.60
2018-09-26T13:30:51.335Z,18.50
2018-09-26T13:35:53.511Z,18.30
2018-09-26T13:40:55.678Z,17.90
2018-09-26T13:45:58.016Z,18.00
2018-09-26T13:50:59.993Z,18.00
2018-09-26T13:56:02.162Z,18.40
2018-09-26T14:01:04.307Z,18.50
2018-09-26T14:06:06.491Z,18.30
2018-09-26T14:11:08.710Z,18.00
2018-09-26T14:16:10.882Z,18.20
2018-09-26T14:21:30.691Z,18.30
2018-09-26T14:26:32.986Z,18.30
2018-09-26T14:31:35.322Z,18.10
2018-09-26T14:36:37.554Z,18.10
2018-09-26T14:41:39.786Z,18.20
2018-09-26T14:46:42.018Z,18.10
2018-09-26T14:51:44.261Z,18.20
2018-09-26T14:56:46.506Z,18.20
2018-09-26T15:01:48.761Z,18.20
2018-09-26T15:06:50.986Z,18.40
2018-09-26T15:11:53.266Z,18.40
2018-09-26T15:16:55.466Z,18.30
2018-09-26T15:21:57.701Z,18.20
2018-09-26T15:26:59.951Z,18.10
2018-09-26T15:32:02.182Z,18.10
2018-09-26T15:37:04.458Z,18.10
2018-09-26T15:42:06.736Z,18.00
2018-09-26T15:47:08.933Z,17.90
2018-09-26T15:52:11.195Z,17.90
2018-09-26T15:57:13.425Z,17.70
2018-09-26T16:02:15.750Z,17.60
2018-09-26T16:07:17.854Z,17.60
2018-09-26T16:12:20.041Z,17.50
2018-09-26T16:17:22.146Z,17.30
2018-09-26T16:22:24.876Z,17.10
2018-09-26T16:27:26.970Z,17.10
2018-09-26T16:32:29.146Z,17.10
2018-09-26T16:37:31.286Z,17.10
2018-09-26T16:42:33.441Z,17.00
2018-09-26T16:47:35.578Z,16.90
2018-09-26T16:52:37.720Z,16.80
2018-09-26T16:57:39.866Z,16.60
2018-09-26T17:02:42.011Z,16.50
2018-09-26T17:07:44.177Z,16.40
2018-09-26T17:12:46.314Z,16.30
2018-09-26T17:17:48.442Z,16.30
2018-09-26T17:22:50.591Z,16.00
2018-09-26T17:27:52.694Z,15.90
2018-09-26T17:32:54.829Z,15.60
2018-09-26T17:37:56.974Z,15.30
2018-09-26T17:42:59.125Z,15.00
2018-09-26T17:48:01.253Z,14.80
2018-09-26T17:53:10.170Z,14.70
2018-09-26T17:58:12.361Z,14.40
2018-09-26T18:03:14.465Z,14.30
2018-09-26T18:08:16.610Z,14.10
2018-09-26T18:13:18.818Z,14.00
2018-09-26T18:18:21.066Z,13.90
2018-09-26T18:23:23.237Z,13.70
2018-09-26T18:28:25.325Z,13.50
2018-09-26T18:33:27.502Z,13.50
2018-09-26T18:38:29.630Z,13.30
2018-09-26T18:43:32.673Z,13.20
2018-09-26T18:48:35.854Z,13.10
2018-09-26T18:53:38.279Z,12.70
2018-09-26T18:58:40.459Z,12.70
2018-09-26T19:03:42.717Z,12.70
2018-09-26T19:08:44.944Z,12.50
2018-09-26T19:13:47.193Z,12.40
2018-09-26T19:18:49.361Z,12.30
2018-09-26T19:23:51.490Z,12.20
2018-09-26T19:28:53.633Z,12.20
2018-09-26T19:33:55.779Z,12.10
2018-09-26T19:38:57.917Z,12.00
2018-09-26T19:44:00.122Z,11.90
2018-09-26T19:49:02.262Z,11.70
2018-09-26T19:54:04.393Z,11.60
2018-09-26T19:59:06.575Z,11.70
2018-09-26T20:04:08.793Z,11.70
2018-09-26T20:09:12.070Z,11.70
2018-09-26T20:14:14.222Z,11.50
2018-09-26T20:19:16.373Z,11.50
2018-09-26T20:24:18.525Z,11.40
2018-09-26T20:29:20.730Z,11.30
2018-09-26T20:34:22.786Z,11.20
2018-09-26T20:39:24.932Z,11.10
2018-09-26T20:44:27.090Z,11.00
2018-09-26T20:49:29.230Z,11.00
2018-09-26T20:54:31.362Z,10.90
2018-09-26T20:59:33.514Z,10.90
2018-09-26T21:04:35.641Z,10.90
2018-09-26T21:09:37.774Z,10.70
2018-09-26T21:14:39.938Z,10.60
2018-09-26T21:19:42.070Z,10.50
2018-09-26T21:24:44.203Z,10.60
2018-09-26T21:29:46.333Z,10.60
2018-09-26T21:34:48.498Z,10.50
2018-09-26T21:39:50.642Z,10.30
2018-09-26T21:44:52.778Z,10.30
2018-09-26T21:49:55.298Z,10.30
2018-09-26T21:54:57.425Z,10.10
2018-09-26T21:59:59.553Z,10.00
2018-09-26T22:05:01.730Z,10.00
2018-09-26T22:10:03.901Z,9.80
2018-09-26T22:15:10.670Z,9.70
2018-09-26T22:20:12.809Z,9.60
2018-09-26T22:25:15.043Z,9.40
2018-09-26T22:30:17.146Z,9.30
2018-09-26T22:35:19.253Z,9.30
2018-09-26T22:40:21.353Z,9.20
2018-09-26T22:45:23.606Z,9.20
2018-09-26T22:50:25.714Z,9.00
2018-09-26T22:55:27.834Z,9.00
2018-09-26T23:00:29.957Z,9.00
2018-09-26T23:05:32.079Z,8.90
2018-09-26T23:10:34.222Z,8.70
2018-09-26T23:15:36.342Z,8.70
2018-09-26T23:20:38.457Z,8.70
2018-09-26T23:25:40.554Z,8.60
2018-09-26T23:30:42.655Z,8.50
2018-09-26T23:35:44.866Z,8.40
2018-09-26T23:40:46.997Z,8.40
2018-09-26T23:45:49.129Z,8.40
2018-09-26T23:50:51.261Z,8.30
2018-09-26T23:55:53.379Z,8.30
